Time;durP1;ratioP1;P1;durP2;ratioP2;P2;SDS_P1;SDS_P2;PMS_P1;PMS_P2;Temp;Humidity;BMP_temperature;BMP_pressure;BME280_temperature;BME280_humidity;BME280_pressure;Samples;Min_cycle;Max_cycle;Signal;HPM_P1;HPM_P2
2023/03/10 00:01:24;;;;;;;4.72;2.30;;;;;;;-142.70;100.00;60390.16;4914334;29;19947;-81
2023/03/10 00:03:50;;;;;;;2.88;2.20;;;;;;;-142.70;100.00;60390.16;4934436;29;20032;-81
2023/03/10 00:06:18;;;;;;;4.25;2.20;;;;;;;-142.70;100.00;60390.16;4901927;29;20059;-81
2023/03/10 00:08:44;;;;;;;5.45;2.67;;;;;;;-142.70;100.00;60390.16;4915547;29;20033;-81
2023/03/10 00:11:10;;;;;;;3.40;2.40;;;;;;;-142.70;100.00;60390.16;4900877;29;20033;-82
2023/03/10 00:13:36;;;;;;;2.88;1.98;;;;;;;-142.70;100.00;60390.16;4901748;29;20064;-82
2023/03/10 00:16:01;;;;;;;3.20;2.00;;;;;;;-142.70;100.00;60390.16;4917335;29;20025;-82
2023/03/10 00:18:27;;;;;;;3.53;2.00;;;;;;;-142.70;100.00;60390.16;4929787;29;20033;-81
2023/03/10 00:20:53;;;;;;;3.55;2.75;;;;;;;-142.70;100.00;60390.16;4914484;29;20060;-81
2023/03/10 00:23:20;;;;;;;4.30;2.47;;;;;;;-142.70;100.00;60390.16;4888918;29;20039;-82
2023/03/10 00:25:55;;;;;;;3.40;2.03;;;;;;;-142.70;100.00;60390.16;4903041;29;20055;-81
2023/03/10 00:28:21;;;;;;;3.80;2.85;;;;;;;-142.70;100.00;60390.16;4904063;29;20035;-81
2023/03/10 00:30:57;;;;;;;3.60;2.03;;;;;;;-142.70;100.00;60390.16;4911156;29;20032;-82
2023/03/10 00:33:23;;;;;;;3.85;1.98;;;;;;;-142.70;100.00;60390.16;4939578;29;20066;-80
2023/03/10 00:35:49;;;;;;;4.82;2.70;;;;;;;-142.70;100.00;60390.16;4902295;29;20174;-80
2023/03/10 00:38:15;;;;;;;7.30;5.68;;;;;;;-142.70;100.00;60390.16;4921607;29;20020;-78
2023/03/10 00:40:40;;;;;;;5.47;4.03;;;;;;;-142.70;100.00;60390.16;4899296;29;20411;-80
2023/03/10 00:43:06;;;;;;;3.05;2.22;;;;;;;-142.70;100.00;60390.16;4917684;29;20032;-80
2023/03/10 00:45:34;;;;;;;2.38;2.15;;;;;;;-142.70;100.00;60390.16;4898199;29;20037;-80
2023/03/10 00:48:00;;;;;;;5.38;2.08;;;;;;;-142.70;100.00;60390.16;4889051;29;20097;-79
2023/03/10 00:50:25;;;;;;;3.25;2.10;;;;;;;-142.70;100.00;60390.16;4918388;29;20040;-80
2023/03/10 00:52:51;;;;;;;3.00;1.80;;;;;;;-142.70;100.00;60390.16;4912642;29;20103;-80
2023/03/10 00:55:17;;;;;;;3.47;2.28;;;;;;;-142.70;100.00;60390.16;4891224;29;20029;-79
2023/03/10 00:57:42;;;;;;;1.88;1.60;;;;;;;-142.70;100.00;60390.16;4886750;29;20542;-79
2023/03/10 01:00:08;;;;;;;2.65;1.92;;;;;;;-142.70;100.00;60390.16;4893819;29;20049;-80
2023/03/10 01:02:34;;;;;;;2.28;1.98;;;;;;;-142.70;100.00;60390.16;4907299;29;20061;-80
2023/03/10 01:04:59;;;;;;;3.53;2.25;;;;;;;-142.70;100.00;60390.16;4908885;29;20032;-80
2023/03/10 01:07:24;;;;;;;3.72;1.90;;;;;;;-142.70;100.00;60390.16;4907108;29;20048;-80
2023/03/10 01:09:50;;;;;;;2.92;1.90;;;;;;;-142.70;100.00;60390.16;4911824;29;20059;-81
2023/03/10 01:12:15;;;;;;;4.25;2.20;;;;;;;-142.70;100.00;60390.16;4910847;29;20101;-80
2023/03/10 01:14:41;;;;;;;2.63;1.52;;;;;;;-142.70;100.00;60390.16;4907980;29;20051;-81
2023/03/10 01:17:06;;;;;;;6.10;1.85;;;;;;;-142.70;100.00;60390.16;4909386;29;20045;-80
2023/03/10 01:19:31;;;;;;;2.10;1.55;;;;;;;-142.70;100.00;60390.16;4911701;29;20028;-80
2023/03/10 01:21:57;;;;;;;5.78;2.28;;;;;;;-142.70;100.00;60390.16;4910693;29;20051;-80
2023/03/10 01:24:22;;;;;;;1.98;1.77;;;;;;;-142.70;100.00;60390.16;4894980;29;20041;-81
2023/03/10 01:26:48;;;;;;;3.92;1.65;;;;;;;-142.70;100.00;60390.16;4907808;29;20084;-80
2023/03/10 01:29:13;;;;;;;2.83;1.95;;;;;;;-142.70;100.00;60390.16;4887860;29;20036;-81
2023/03/10 01:31:40;;;;;;;3.15;2.20;;;;;;;-142.70;100.00;60390.16;4896084;29;20036;-80
2023/03/10 01:34:06;;;;;;;2.15;1.90;;;;;;;-142.70;100.00;60390.16;4895864;29;20052;-80
2023/03/10 01:36:31;;;;;;;3.13;1.70;;;;;;;-142.70;100.00;60390.16;4911555;29;20020;-81
2023/03/10 01:38:59;;;;;;;2.65;2.00;;;;;;;-142.70;100.00;60390.16;4898672;29;20108;-81
2023/03/10 01:41:24;;;;;;;4.13;2.05;;;;;;;-142.70;100.00;60390.16;4916523;29;20020;-81
2023/03/10 01:43:52;;;;;;;3.58;1.60;;;;;;;-142.70;100.00;60390.16;4916756;29;20032;-81
2023/03/10 01:46:30;;;;;;;2.80;2.20;;;;;;;-142.70;100.00;60390.16;4915511;29;20069;-81
2023/03/10 01:48:59;;;;;;;1.75;1.35;;;;;;;-142.70;100.00;60390.16;4916138;29;20031;-81
2023/03/10 01:51:25;;;;;;;1.92;1.60;;;;;;;-142.70;100.00;60390.16;4917284;29;20052;-82
2023/03/10 01:53:51;;;;;;;3.72;1.90;;;;;;;-142.70;100.00;60390.16;4903964;29;20048;-80
2023/03/10 01:56:16;;;;;;;2.67;1.73;;;;;;;-142.70;100.00;60390.16;4918460;29;20033;-82
2023/03/10 01:58:44;;;;;;;2.65;1.90;;;;;;;-142.70;100.00;60390.16;4918576;29;20088;-82
2023/03/10 02:01:13;;;;;;;3.15;1.80;;;;;;;-142.70;100.00;60390.16;4918389;29;20052;-81
2023/03/10 02:03:45;;;;;;;2.90;1.60;;;;;;;-142.70;100.00;60390.16;4912693;29;20029;-80
2023/03/10 02:06:15;;;;;;;2.42;1.88;;;;;;;-142.70;100.00;60390.16;4869827;29;20036;-80
2023/03/10 02:08:44;;;;;;;3.13;1.83;;;;;;;-142.70;100.00;60390.16;4906538;29;20028;-81
2023/03/10 02:11:10;;;;;;;2.93;1.93;;;;;;;-142.70;100.00;60390.16;4907403;29;20013;-81
2023/03/10 02:13:36;;;;;;;2.03;1.83;;;;;;;-142.70;100.00;60390.16;4904993;29;20109;-80
2023/03/10 02:16:01;;;;;;;2.60;1.73;;;;;;;-142.70;100.00;60390.16;4902568;29;20060;-80
2023/03/10 02:18:27;;;;;;;3.03;1.85;;;;;;;-142.70;100.00;60390.16;4905849;29;20044;-80
2023/03/10 02:21:10;;;;;;;2.38;1.70;;;;;;;-142.70;100.00;60390.16;4891848;29;20037;-80
2023/03/10 02:23:56;;;;;;;3.53;1.92;;;;;;;-142.70;100.00;60390.16;4910412;29;20064;-81
2023/03/10 02:26:43;;;;;;;3.10;1.50;;;;;;;-142.70;100.00;60390.16;4909961;29;20036;-81
2023/03/10 02:29:13;;;;;;;4.97;1.73;;;;;;;-142.70;100.00;60390.16;4911492;29;20037;-81
2023/03/10 02:31:38;;;;;;;;;;;;;;;-142.70;100.00;60390.16;4917184;29;20040;-81
2023/03/10 02:34:05;;;;;;;2.47;1.60;;;;;;;-142.70;100.00;60390.16;4913316;29;19982;-81
2023/03/10 02:36:31;;;;;;;2.60;2.00;;;;;;;-142.70;100.00;60390.16;4910188;29;20774;-80
2023/03/10 02:38:57;;;;;;;2.10;1.52;;;;;;;-142.70;100.00;60390.16;4897493;29;20029;-79
2023/03/10 02:41:29;;;;;;;3.60;1.60;;;;;;;-142.70;100.00;60390.16;4886978;29;20546;-78
2023/03/10 02:43:56;;;;;;;2.55;1.90;;;;;;;-142.70;100.00;60390.16;4889366;29;20028;-78
2023/03/10 02:46:22;;;;;;;2.00;1.52;;;;;;;-142.70;100.00;60390.16;4890813;29;20040;-79
2023/03/10 02:48:47;;;;;;;2.80;2.53;;;;;;;-142.70;100.00;60390.16;4869020;29;20032;-80
2023/03/10 02:51:20;;;;;;;3.50;2.50;;;;;;;-142.70;100.00;60390.16;4879678;29;20033;-79
2023/03/10 02:53:46;;;;;;;3.22;1.60;;;;;;;-142.70;100.00;60390.16;4879608;29;20040;-79
2023/03/10 02:56:11;;;;;;;2.58;1.67;;;;;;;-142.70;100.00;60390.16;4894516;29;20481;-80
2023/03/10 02:58:37;;;;;;;4.05;1.48;;;;;;;-142.70;100.00;60390.16;4886453;29;20039;-80
2023/03/10 03:01:04;;;;;;;1.67;1.58;;;;;;;-142.70;100.00;60390.16;4888888;29;20045;-80
2023/03/10 03:03:29;;;;;;;5.60;1.95;;;;;;;-142.70;100.00;60390.16;4901480;29;20056;-80
2023/03/10 03:05:55;;;;;;;2.83;1.48;;;;;;;-142.70;100.00;60390.16;4868275;29;20037;-79
2023/03/10 03:08:20;;;;;;;3.33;1.55;;;;;;;-142.70;100.00;60390.16;4876446;29;20021;-79
2023/03/10 03:10:46;;;;;;;3.03;1.60;;;;;;;-142.70;100.00;60390.16;4905512;29;20029;-79
2023/03/10 03:13:11;;;;;;;2.85;1.85;;;;;;;-142.70;100.00;60390.16;4910341;29;20092;-79
2023/03/10 03:15:37;;;;;;;3.63;2.22;;;;;;;-142.70;100.00;60390.16;4894629;29;20544;-80
2023/03/10 03:18:03;;;;;;;3.65;2.30;;;;;;;-142.70;100.00;60390.16;4893490;29;20035;-79
2023/03/10 03:20:29;;;;;;;2.83;2.10;;;;;;;-142.70;100.00;60390.16;4882650;29;20694;-79
2023/03/10 03:22:55;;;;;;;2.83;2.15;;;;;;;-142.70;100.00;60390.16;4881156;29;20123;-80
2023/03/10 03:25:22;;;;;;;3.65;2.28;;;;;;;-142.70;100.00;60390.16;4882546;29;20040;-79
2023/03/10 03:27:48;;;;;;;4.20;3.00;;;;;;;-142.70;100.00;60390.16;4884506;29;20025;-79
2023/03/10 03:30:33;;;;;;;3.53;2.67;;;;;;;-142.70;100.00;60390.16;4880837;29;20060;-79
2023/03/10 03:33:00;;;;;;;3.15;2.40;;;;;;;-142.70;100.00;60390.16;4891926;29;20028;-79
2023/03/10 03:35:29;;;;;;;4.55;2.60;;;;;;;-142.70;100.00;60390.16;4877848;29;20139;-79
2023/03/10 03:37:55;;;;;;;6.93;4.63;;;;;;;-142.70;100.00;60390.16;4892700;29;20025;-79
2023/03/10 03:40:22;;;;;;;9.10;8.15;;;;;;;-142.70;100.00;60390.16;4892279;29;20051;-79
2023/03/10 03:42:49;;;;;;;10.25;7.85;;;;;;;-142.70;100.00;60390.16;4875134;29;20032;-78
2023/03/10 03:45:17;;;;;;;11.50;8.82;;;;;;;-142.70;100.00;60390.16;4896959;29;20032;-80
2023/03/10 03:47:43;;;;;;;11.38;8.15;;;;;;;-142.70;100.00;60390.16;4900209;29;20054;-80
2023/03/10 03:50:10;;;;;;;7.25;5.40;;;;;;;-142.70;100.00;60390.16;4901988;29;20033;-80
2023/03/10 03:52:35;;;;;;;3.60;3.30;;;;;;;-142.70;100.00;60390.16;4884919;29;20041;-79
2023/03/10 03:55:01;;;;;;;5.85;4.82;;;;;;;-142.70;100.00;60390.16;4877315;29;20025;-79
2023/03/10 03:57:26;;;;;;;8.48;6.10;;;;;;;-142.70;100.00;60390.16;4874426;29;20155;-79
2023/03/10 03:59:52;;;;;;;3.85;3.30;;;;;;;-142.70;100.00;60390.16;4885679;29;20060;-79
2023/03/10 04:02:18;;;;;;;3.70;2.97;;;;;;;-142.70;100.00;60390.16;4848272;29;20029;-79
2023/03/10 04:04:43;;;;;;;3.17;2.83;;;;;;;-142.70;100.00;60390.16;4861752;29;20096;-79
2023/03/10 04:07:09;;;;;;;4.00;3.55;;;;;;;-142.70;100.00;60390.16;4846199;29;20029;-79
2023/03/10 04:09:34;;;;;;;4.55;2.63;;;;;;;-142.70;100.00;60390.16;4861236;29;20052;-80
2023/03/10 04:11:59;;;;;;;2.47;2.20;;;;;;;-142.70;100.00;60390.16;4886125;29;20044;-79
2023/03/10 04:14:25;;;;;;;5.82;2.20;;;;;;;-142.70;100.00;60390.16;4864537;29;20028;-80
2023/03/10 04:16:50;;;;;;;2.80;2.45;;;;;;;-142.70;100.00;60390.16;4862589;29;20521;-80
2023/03/10 04:19:16;;;;;;;8.88;4.18;;;;;;;-142.70;100.00;60390.16;4844962;29;20124;-79
2023/03/10 04:21:41;;;;;;;2.50;1.85;;;;;;;-142.70;100.00;60390.16;4862029;29;20075;-79
2023/03/10 04:24:08;;;;;;;5.65;3.58;;;;;;;-142.70;100.00;60390.16;4861683;29;20037;-79
2023/03/10 04:26:33;;;;;;;7.47;4.88;;;;;;;-142.70;100.00;60390.16;4878452;29;20033;-80
2023/03/10 04:28:58;;;;;;;7.47;6.60;;;;;;;-142.70;100.00;60390.16;4852803;29;20052;-79
2023/03/10 04:31:24;;;;;;;5.80;5.15;;;;;;;-142.70;100.00;60390.16;4846886;29;20080;-80
2023/03/10 04:33:50;;;;;;;9.35;6.25;;;;;;;-142.70;100.00;60390.16;4848589;29;20491;-80
2023/03/10 04:36:17;;;;;;;4.68;2.97;;;;;;;-142.70;100.00;60390.16;4851116;29;20066;-80
2023/03/10 04:38:42;;;;;;;5.38;3.80;;;;;;;-142.70;100.00;60390.16;4868062;29;20574;-80
2023/03/10 04:41:08;;;;;;;3.70;3.08;;;;;;;-142.70;100.00;60390.16;4865090;29;20068;-80
2023/03/10 04:43:34;;;;;;;2.65;2.38;;;;;;;-142.70;100.00;60390.16;4866267;29;20112;-80
2023/03/10 04:45:59;;;;;;;3.00;2.70;;;;;;;-142.70;100.00;60390.16;4852634;29;20037;-80
2023/03/10 04:48:24;;;;;;;3.05;2.58;;;;;;;-142.70;100.00;60390.16;4853349;29;20807;-80
2023/03/10 04:50:55;;;;;;;8.85;6.22;;;;;;;-142.70;100.00;60390.16;4831061;29;20037;-80
2023/03/10 04:53:20;;;;;;;3.88;3.58;;;;;;;-142.70;100.00;60390.16;4858946;29;20078;-80
2023/03/10 04:55:45;;;;;;;6.30;5.80;;;;;;;-142.70;100.00;60390.16;4881376;29;20029;-80
2023/03/10 04:58:11;;;;;;;5.68;4.68;;;;;;;-142.70;100.00;60390.16;4866301;29;20033;-80
2023/03/10 05:00:38;;;;;;;5.68;5.25;;;;;;;-142.70;100.00;60390.16;4891052;29;20053;-80
2023/03/10 05:03:03;;;;;;;5.10;4.60;;;;;;;-142.70;100.00;60390.16;4862052;29;20477;-80
2023/03/10 05:05:33;;;;;;;7.35;6.65;;;;;;;-142.70;100.00;60390.16;4885707;29;20024;-80
2023/03/10 05:07:58;;;;;;;;;;;;;;;-142.70;100.00;60390.16;4869390;29;20597;-79
2023/03/10 05:10:24;;;;;;;6.30;5.70;;;;;;;-142.70;100.00;60390.16;4871808;29;19916;-80
2023/03/10 05:12:49;;;;;;;9.50;8.63;;;;;;;-142.70;100.00;60390.16;4882173;29;20040;-81
2023/03/10 05:15:15;;;;;;;11.02;9.75;;;;;;;-142.70;100.00;60390.16;4890708;29;20412;-80
2023/03/10 05:17:40;;;;;;;11.30;5.07;;;;;;;-142.70;100.00;60390.16;4877718;29;20444;-80
2023/03/10 05:20:08;;;;;;;4.60;4.20;;;;;;;-142.70;100.00;60390.16;4863090;29;20060;-80
2023/03/10 05:22:34;;;;;;;9.25;5.00;;;;;;;-142.70;100.00;60390.16;4856610;29;20041;-80
2023/03/10 05:24:59;;;;;;;6.90;4.72;;;;;;;-142.70;100.00;60390.16;4864386;29;20051;-80
2023/03/10 05:27:25;;;;;;;5.82;5.05;;;;;;;-142.70;100.00;60390.16;4871926;29;20044;-81
2023/03/10 05:29:50;;;;;;;5.13;4.47;;;;;;;-142.70;100.00;60390.16;4880273;29;20028;-79
2023/03/10 05:32:17;;;;;;;5.82;3.72;;;;;;;-142.70;100.00;60390.16;4870182;29;20028;-80
2023/03/10 05:34:42;;;;;;;6.13;3.70;;;;;;;-142.70;100.00;60390.16;4884874;29;20192;-80
2023/03/10 05:37:07;;;;;;;4.30;2.70;;;;;;;-142.70;100.00;60390.16;4875585;29;20029;-80
2023/03/10 05:39:33;;;;;;;3.45;3.15;;;;;;;-142.70;100.00;60390.16;4865520;29;20032;-80
2023/03/10 05:41:58;;;;;;;4.22;3.35;;;;;;;-142.70;100.00;60390.16;4842357;29;20033;-80
2023/03/10 05:44:24;;;;;;;4.40;2.80;;;;;;;-142.70;100.00;60390.16;4885711;29;20029;-80
2023/03/10 05:46:49;;;;;;;6.55;2.60;;;;;;;-142.70;100.00;60390.16;4897746;29;20029;-80
2023/03/10 05:49:15;;;;;;;2.95;1.90;;;;;;;-142.70;100.00;60390.16;4861906;29;20088;-80
2023/03/10 05:51:40;;;;;;;2.72;2.00;;;;;;;-142.70;100.00;60390.16;4887625;29;20570;-79
2023/03/10 05:54:06;;;;;;;2.38;1.92;;;;;;;-142.70;100.00;60390.16;4881107;29;20036;-79
2023/03/10 05:56:31;;;;;;;4.10;1.90;;;;;;;-142.70;100.00;60390.16;4866215;29;20025;-79
2023/03/10 05:58:57;;;;;;;3.53;2.30;;;;;;;-142.70;100.00;60390.16;4889137;29;20044;-80
2023/03/10 06:01:22;;;;;;;5.43;1.92;;;;;;;-142.70;100.00;60390.16;4884684;29;20039;-80
2023/03/10 06:03:48;;;;;;;3.40;2.22;;;;;;;-142.70;100.00;60390.16;4881189;29;20035;-79
2023/03/10 06:06:13;;;;;;;3.65;2.50;;;;;;;-142.70;100.00;60390.16;4900715;29;20021;-81
2023/03/10 06:08:39;;;;;;;4.15;2.75;;;;;;;-142.70;100.00;60390.16;4905322;29;20029;-80
2023/03/10 06:11:05;;;;;;;7.70;4.80;;;;;;;-142.70;100.00;60390.16;4910788;29;20029;-80
2023/03/10 06:13:30;;;;;;;7.50;4.68;;;;;;;-142.70;100.00;60390.16;4908278;29;20032;-80
2023/03/10 06:16:01;;;;;;;5.18;3.65;;;;;;;-142.70;100.00;60390.16;4896850;29;20032;-78
2023/03/10 06:18:28;;;;;;;8.32;4.30;;;;;;;-142.70;100.00;60390.16;4890343;29;20025;-78
2023/03/10 06:20:54;;;;;;;6.68;4.82;;;;;;;-142.70;100.00;60390.16;4894307;29;20052;-79
2023/03/10 06:23:20;;;;;;;6.63;5.40;;;;;;;-142.70;100.00;60390.16;4894769;29;20036;-79
2023/03/10 06:25:56;;;;;;;4.95;4.45;;;;;;;-142.70;100.00;60390.16;4893364;29;20578;-79
2023/03/10 06:28:21;;;;;;;8.55;5.47;;;;;;;-142.70;100.00;60390.16;4881465;29;20487;-79
2023/03/10 06:30:53;;;;;;;5.75;4.15;;;;;;;-142.70;100.00;60390.16;4892104;29;20040;-80
2023/03/10 06:33:19;;;;;;;8.13;4.57;;;;;;;-142.70;100.00;60390.16;4894371;29;20044;-79
2023/03/10 06:35:44;;;;;;;13.60;9.77;;;;;;;-142.70;100.00;60390.16;4898962;29;20089;-80
2023/03/10 06:38:09;;;;;;;12.32;10.48;;;;;;;-142.70;100.00;60390.16;4897234;29;20036;-79
2023/03/10 06:40:35;;;;;;;7.93;4.82;;;;;;;-142.70;100.00;60390.16;4896889;29;20414;-80
2023/03/10 06:43:00;;;;;;;3.58;3.28;;;;;;;-142.70;100.00;60390.16;4898044;29;20063;-80
2023/03/10 06:45:25;;;;;;;6.45;3.30;;;;;;;-142.70;100.00;60390.16;4899702;29;20149;-80
2023/03/10 06:47:51;;;;;;;4.68;3.20;;;;;;;-142.70;100.00;60390.16;4900267;29;20446;-80
2023/03/10 06:50:16;;;;;;;7.03;3.25;;;;;;;-142.70;100.00;60390.16;4898749;29;20028;-79
2023/03/10 06:52:42;;;;;;;4.00;3.10;;;;;;;-142.70;100.00;60390.16;4886816;29;20045;-80
2023/03/10 06:55:08;;;;;;;4.18;2.50;;;;;;;-142.70;100.00;60390.16;4912970;29;20028;-81
2023/03/10 06:57:33;;;;;;;5.20;2.80;;;;;;;-142.70;100.00;60390.16;5293733;24;20064;-80
2023/03/10 07:02:28;;;;;;;3.85;2.50;;;;;;;-142.70;100.00;60390.16;4905273;29;20119;-82
2023/03/10 07:04:53;;;;;;;3.95;3.55;;;;;;;-142.70;100.00;60390.16;4898747;29;20102;-78
2023/03/10 07:07:19;;;;;;;4.05;3.67;;;;;;;-142.70;100.00;60390.16;4881065;29;20029;-78
2023/03/10 07:09:45;;;;;;;4.40;4.00;;;;;;;-142.70;100.00;60390.16;4891678;29;20100;-78
2023/03/10 07:12:10;;;;;;;5.53;4.95;;;;;;;-142.70;100.00;60390.16;4882773;29;20024;-81
2023/03/10 07:14:36;;;;;;;6.68;4.53;;;;;;;-142.70;100.00;60390.16;4899526;29;20044;-79
2023/03/10 07:17:02;;;;;;;6.85;6.25;;;;;;;-142.70;100.00;60390.16;4882813;29;20036;-80
2023/03/10 07:19:27;;;;;;;5.13;4.18;;;;;;;-142.70;100.00;60390.16;4900083;29;20035;-78
2023/03/10 07:21:52;;;;;;;6.03;4.15;;;;;;;-142.70;100.00;60390.16;4897139;29;20032;-78
2023/03/10 07:24:18;;;;;;;4.05;3.63;;;;;;;-142.70;100.00;60390.16;4885591;29;20060;-80
2023/03/10 07:26:44;;;;;;;4.18;3.15;;;;;;;-142.70;100.00;60390.16;4894700;29;20025;-80
2023/03/10 07:29:09;;;;;;;4.82;4.30;;;;;;;-142.70;100.00;60390.16;4921104;29;20029;-80
2023/03/10 07:31:36;;;;;;;4.57;3.70;;;;;;;-142.70;100.00;60390.16;4897765;29;20049;-81
2023/03/10 07:34:01;;;;;;;3.30;2.97;;;;;;;-142.70;100.00;60390.16;4908357;29;20043;-80
2023/03/10 07:36:28;;;;;;;6.20;2.88;;;;;;;-142.70;100.00;60390.16;4901503;29;20100;-83
2023/03/10 07:38:54;;;;;;;5.10;2.90;;;;;;;-142.70;100.00;60390.16;4903174;29;20045;-81
2023/03/10 07:41:20;;;;;;;2.20;1.90;;;;;;;-142.70;100.00;60390.16;4903022;29;20021;-81
2023/03/10 07:43:53;;;;;;;3.88;2.80;;;;;;;-142.70;100.00;60390.16;4905190;29;20025;-82
2023/03/10 07:46:19;;;;;;;3.10;2.80;;;;;;;-142.70;100.00;60390.16;4897853;29;20112;-80
2023/03/10 07:48:45;;;;;;;5.57;1.90;;;;;;;-142.70;100.00;60390.16;4898888;29;20091;-78
2023/03/10 07:51:11;;;;;;;2.08;1.55;;;;;;;-142.70;100.00;60390.16;4905834;29;20076;-82
2023/03/10 07:53:37;;;;;;;2.85;1.70;;;;;;;-142.70;100.00;60390.16;4898711;29;20041;-81
2023/03/10 07:58:38;;;;;;;3.63;1.42;;;;;;;-142.70;100.00;60390.16;5121506;23;20059;-79
2023/03/10 08:01:04;;;;;;;1.80;1.70;;;;;;;-142.70;100.00;60390.16;4930327;29;20112;-80
2023/03/10 08:03:29;;;;;;;1.98;1.40;;;;;;;-142.70;100.00;60390.16;4941093;29;20457;-80
2023/03/10 08:05:56;;;;;;;2.13;1.52;;;;;;;-142.70;100.00;60390.16;4928946;29;20059;-80
2023/03/10 08:08:22;;;;;;;1.45;1.35;;;;;;;-142.70;100.00;60390.16;4949690;28;20035;-80
2023/03/10 08:10:47;;;;;;;3.55;1.50;;;;;;;-142.70;100.00;60390.16;4946649;29;20130;-80
2023/03/10 08:13:13;;;;;;;2.28;1.50;;;;;;;-142.70;100.00;60390.16;4948465;29;20062;-80
2023/03/10 08:15:39;;;;;;;5.20;1.45;;;;;;;-142.70;100.00;60390.16;4934610;29;20031;-80
2023/03/10 08:18:06;;;;;;;2.28;1.35;;;;;;;-142.70;100.00;60390.16;4922994;29;20040;-80
2023/03/10 08:20:32;;;;;;;3.85;1.60;;;;;;;-142.70;100.00;60390.16;4938320;28;20824;-82
2023/03/10 08:22:58;;;;;;;1.75;1.30;;;;;;;-142.70;100.00;60390.16;4915431;29;20033;-85
2023/03/10 08:25:23;;;;;;;5.78;1.45;;;;;;;-142.70;100.00;60390.16;4911830;29;20110;-84
2023/03/10 08:27:49;;;;;;;3.20;1.40;;;;;;;-142.70;100.00;60390.16;4926536;29;20129;-79
2023/03/10 08:30:15;;;;;;;1.80;1.30;;;;;;;-142.70;100.00;60390.16;4928429;29;20493;-83
2023/03/10 08:32:42;;;;;;;2.60;1.25;;;;;;;-142.70;100.00;60390.16;4925667;28;20034;-82
2023/03/10 08:35:07;;;;;;;2.95;1.30;;;;;;;-142.70;100.00;60390.16;4927808;29;20101;-81
2023/03/10 08:37:33;;;;;;;2.38;1.45;;;;;;;-142.70;100.00;60390.16;4926382;29;20486;-80
2023/03/10 08:39:59;;;;;;;1.33;0.98;;;;;;;-142.70;100.00;60390.16;4929192;29;20051;-80
2023/03/10 08:42:25;;;;;;;1.95;1.20;;;;;;;-142.70;100.00;60390.16;4912823;29;20115;-80
2023/03/10 08:44:54;;;;;;;4.05;1.10;;;;;;;-142.70;100.00;60390.16;4935088;29;20215;-80
2023/03/10 08:47:19;;;;;;;2.72;0.88;;;;;;;-142.70;100.00;60390.16;4942399;29;20114;-78
2023/03/10 08:49:45;;;;;;;3.63;1.33;;;;;;;-142.70;100.00;60390.16;4932925;29;20462;-81
2023/03/10 08:52:10;;;;;;;1.85;1.15;;;;;;;-142.70;100.00;60390.16;4927975;29;20037;-79
2023/03/10 08:54:36;;;;;;;2.88;1.27;;;;;;;-142.70;100.00;60390.16;4906013;29;20041;-85
2023/03/10 08:57:02;;;;;;;2.45;1.15;;;;;;;-142.70;100.00;60390.16;4901179;29;20031;-82
2023/03/10 08:59:27;;;;;;;3.08;1.40;;;;;;;-142.70;100.00;60390.16;4932199;29;20095;-81
2023/03/10 09:01:53;;;;;;;1.60;1.50;;;;;;;-142.70;100.00;60390.16;4931260;28;20031;-81
2023/03/10 09:04:18;;;;;;;2.53;1.27;;;;;;;-142.70;100.00;60390.16;4928263;29;20122;-81
2023/03/10 09:06:43;;;;;;;4.85;1.52;;;;;;;-142.70;100.00;60390.16;4935509;29;20038;-81
2023/03/10 09:09:10;;;;;;;3.65;1.80;;;;;;;-142.70;100.00;60390.16;4916315;29;20065;-85
2023/03/10 09:11:37;;;;;;;5.55;2.00;;;;;;;-142.70;100.00;60390.16;4940092;28;20115;-79
2023/03/10 09:14:03;;;;;;;2.42;1.20;;;;;;;-142.70;100.00;60390.16;4906415;29;20407;-78
2023/03/10 09:16:29;;;;;;;2.08;1.13;;;;;;;-142.70;100.00;60390.16;4921485;29;20031;-77
2023/03/10 09:18:58;;;;;;;1.95;1.23;;;;;;;-142.70;100.00;60390.16;4918913;29;20126;-79
2023/03/10 09:21:23;;;;;;;3.92;1.15;;;;;;;-142.70;100.00;60390.16;4917704;29;20398;-80
2023/03/10 09:23:51;;;;;;;2.67;1.20;;;;;;;-142.70;100.00;60390.16;4915031;29;20039;-80
2023/03/10 09:26:17;;;;;;;1.58;1.05;;;;;;;-142.70;100.00;60390.16;4908663;29;20032;-77
2023/03/10 09:28:46;;;;;;;2.08;1.10;;;;;;;-142.70;100.00;60390.16;4933781;29;20032;-77
2023/03/10 09:31:16;;;;;;;1.95;1.00;;;;;;;-142.70;100.00;60390.16;4925829;29;20031;-78
2023/03/10 09:33:42;;;;;;;3.67;1.42;;;;;;;-142.70;100.00;60390.16;4910203;29;20039;-76
2023/03/10 09:36:08;;;;;;;3.22;1.02;;;;;;;-142.70;100.00;60390.16;4919902;29;20036;-77
2023/03/10 09:38:34;;;;;;;2.03;1.10;;;;;;;-142.70;100.00;60390.16;4902438;29;20160;-76
2023/03/10 09:41:05;;;;;;;2.50;1.20;;;;;;;-142.70;100.00;60390.16;4926938;29;20405;-79
2023/03/10 09:43:36;;;;;;;3.75;1.05;;;;;;;-142.70;100.00;60390.16;4942113;29;20042;-77
2023/03/10 09:46:19;;;;;;;3.25;1.20;;;;;;;-142.70;100.00;60390.16;4906870;29;20023;-80
2023/03/10 09:49:38;;;;;;;2.65;1.52;;;;;;;-142.70;100.00;60390.16;4953180;29;20035;-80
2023/03/10 09:52:28;;;;;;;1.95;1.42;;;;;;;-142.70;100.00;60390.16;4895512;28;20127;-81
2023/03/10 09:54:56;;;;;;;1.13;0.95;;;;;;;-142.70;100.00;60390.16;4915151;28;20525;-84
2023/03/10 09:57:22;;;;;;;1.75;1.17;;;;;;;-142.70;100.00;60390.16;4948165;29;20063;-80
2023/03/10 09:59:49;;;;;;;4.22;0.90;;;;;;;-142.70;100.00;60390.16;4911045;29;20268;-79
2023/03/10 10:02:19;;;;;;;4.75;1.48;;;;;;;-142.70;100.00;60390.16;4927093;28;20543;-79
2023/03/10 10:04:46;;;;;;;1.90;1.52;;;;;;;-142.70;100.00;60390.16;4928295;29;20043;-79
2023/03/10 10:07:18;;;;;;;1.77;1.15;;;;;;;-142.70;100.00;60390.16;4924816;28;20039;-77
2023/03/10 10:10:13;;;;;;;3.83;1.27;;;;;;;-142.70;100.00;60390.16;4908242;29;20517;-76
2023/03/10 10:12:39;;;;;;;1.27;0.93;;;;;;;-142.70;100.00;60390.16;4930851;28;20267;-78
2023/03/10 10:15:21;;;;;;;2.00;1.10;;;;;;;-142.70;100.00;60390.16;4928203;29;20460;-80
2023/03/10 10:18:16;;;;;;;3.13;1.10;;;;;;;-142.70;100.00;60390.16;4933407;29;20027;-79
2023/03/10 10:20:48;;;;;;;2.40;1.38;;;;;;;-142.70;100.00;60390.16;4915330;29;20069;-77
2023/03/10 10:23:28;;;;;;;2.88;0.93;;;;;;;-142.70;100.00;60390.16;4922735;29;20535;-80
2023/03/10 10:25:53;;;;;;;1.65;0.85;;;;;;;-142.70;100.00;60390.16;4927124;29;20114;-78
2023/03/10 10:28:35;;;;;;;2.58;1.08;;;;;;;-142.70;100.00;60390.16;4910111;29;20652;-79
2023/03/10 10:31:19;;;;;;;1.00;0.90;;;;;;;-142.70;100.00;60390.16;4915672;29;20046;-79
2023/03/10 10:34:18;;;;;;;1.95;0.90;;;;;;;-142.70;100.00;60390.16;4924311;29;20535;-83
2023/03/10 10:36:49;;;;;;;;;;;;;;;-142.70;100.00;60390.16;4907172;29;20490;-79
2023/03/10 10:39:24;;;;;;;2.90;1.00;;;;;;;-142.70;100.00;60390.16;4906631;29;19931;-80
2023/03/10 10:41:50;;;;;;;1.02;0.80;;;;;;;-142.70;100.00;60390.16;4920174;29;20122;-79
2023/03/10 10:44:20;;;;;;;3.65;1.08;;;;;;;-142.70;100.00;60390.16;4914999;29;20138;-80
2023/03/10 10:46:54;;;;;;;1.25;0.98;;;;;;;-142.70;100.00;60390.16;4931467;28;20035;-79
2023/03/10 10:49:25;;;;;;;1.42;0.80;;;;;;;-142.70;100.00;60390.16;4925096;29;20051;-77
2023/03/10 10:51:59;;;;;;;2.45;1.10;;;;;;;-142.70;100.00;60390.16;4947348;28;20541;-79
2023/03/10 10:54:33;;;;;;;1.60;0.90;;;;;;;-142.70;100.00;60390.16;4934344;28;20097;-78
2023/03/10 10:57:00;;;;;;;1.08;0.80;;;;;;;-142.70;100.00;60390.16;4917067;29;20390;-80
2023/03/10 10:59:33;;;;;;;2.22;0.77;;;;;;;-142.70;100.00;60390.16;4916560;29;20130;-80
2023/03/10 11:02:01;;;;;;;1.30;0.85;;;;;;;-142.70;100.00;60390.16;4913192;29;20524;-79
2023/03/10 11:04:42;;;;;;;1.40;1.10;;;;;;;-142.70;100.00;60390.16;4909467;29;20055;-77
2023/03/10 11:07:28;;;;;;;3.38;1.00;;;;;;;-142.70;100.00;60390.16;4931320;29;20028;-76
2023/03/10 11:09:56;;;;;;;2.60;0.98;;;;;;;-142.70;100.00;60390.16;4935492;29;20040;-78
2023/03/10 11:12:35;;;;;;;3.50;1.10;;;;;;;-142.70;100.00;60390.16;4915280;29;20041;-77
2023/03/10 11:15:24;;;;;;;2.35;1.15;;;;;;;-142.70;100.00;60390.16;4914505;28;20031;-76
2023/03/10 11:18:30;;;;;;;1.02;0.93;;;;;;;-142.70;100.00;60390.16;4914325;29;20066;-79